Date,TemperatureHighF,TemperatureAvgF,TemperatureLowF,DewpointHighF,DewpointAvgF,DewpointLowF,HumidityHigh,HumidityAvg,HumidityLow,PressureMaxIn,PressureMinIn,WindSpeedMaxMPH,WindSpeedAvgMPH,GustSpeedMaxMPH,PrecipitationSumIn
2013-1-1,24,21,17,17,12,10,77,67,57,29.44,29.32,9,3,12,0.00
2013-1-2,25,21,16,22,16,11,87,79,72,29.44,29.34,12,2,12,0.00
2013-1-3,28,25,20,23,20,15,86,81,75,29.41,29.30,9,5,17,0.00
2013-1-4,34,28,25,24,22,20,86,77,67,29.43,29.23,23,8,29,0.00
2013-1-5,36,28,16,30,24,15,95,87,72,29.52,29.24,8,2,13,0.00
2013-1-6,35,33,29,33,30,24,96,89,76,29.54,29.14,14,4,14,0.06
2013-1-7,37,32,29,26,24,20,85,74,50,29.58,29.35,20,6,29,0.00
2013-1-8,41,32,27,32,26,23,86,80,69,29.49,29.37,11,3,13,0.00
2013-1-9,47,38,28,34,29,24,85,71,42,29.70,29.22,20,6,35,0.01
2013-1-10,45,33,22,32,26,20,94,79,53,29.84,29.47,5,1,9,0.09
2013-1-11,51,43,34,50,42,32,97,95,90,29.46,29.01,9,2,17,0.70
2013-1-12,57,49,41,49,41,31,95,76,51,29.24,29.05,15,5,21,0.00
2013-1-13,40,34,25,35,32,22,96,93,79,29.32,29.11,6,2,12,0.45
2013-1-14,28,22,14,21,15,11,89,76,59,29.69,29.32,11,3,16,0.00
2013-1-15,28,20,12,19,15,10,93,80,64,29.69,29.43,6,1,11,0.00
2013-1-16,35,26,15,29,21,13,92,82,62,29.43,29.01,14,4,26,0.00
2013-1-17,31,22,14,28,16,5,88,75,61,29.61,29.22,10,3,16,0.00
2013-1-18,34,21,6,26,15,4,91,78,61,29.69,29.13,16,5,19,0.00
2013-1-19,42,37,33,37,31,25,94,78,71,29.16,28.77,10,5,28,0.02
2013-1-20,34,18,12,32,10,3,94,69,59,29.46,28.79,25,7,32,0.00
2013-1-21,15,10,1,9,2,-6,84,70,51,29.41,29.24,14,5,19,0.00
2013-1-22,7,2,-2,-4,-6,-10,77,68,57,29.55,29.38,9,4,18,0.00
2013-1-23,16,9,2,11,5,-4,89,82,72,29.55,29.34,10,2,15,0.00
2013-1-24,19,10,1,7,2,-2,90,74,41,29.89,29.45,6,1,9,0.00
2013-1-25,21,16,11,16,11,4,90,82,71,29.77,29.28,8,2,11,0.00
2013-1-26,32,22,13,18,15,10,90,77,49,29.70,29.32,6,1,10,0.00
2013-1-27,29,22,12,24,17,9,94,80,63,29.72,29.40,8,2,13,0.00
2013-1-28,40,34,26,39,33,25,97,94,89,29.39,29.11,7,2,11,0.20
2013-1-29,54,43,33,53,42,31,98,96,91,29.30,28.69,8,2,12,1.40
2013-1-30,54,41,30,53,40,26,98,96,82,28.69,28.38,13,3,19,0.61
2013-1-31,28,21,17,22,12,4,82,69,45,29.15,28.54,18,8,25,0.00
2013-2-1,18,15,11,11,8,4,83,73,60,29.47,29.15,13,6,20,0.00
2013-2-2,18,13,4,12,7,1,90,80,62,29.43,29.28,9,2,15,0.00
2013-2-3,20,11,2,14,7,-1,90,83,68,29.31,29.12,11,2,17,0.00
2013-2-4,24,14,6,13,10,4,91,81,53,29.29,29.18,3,1,8,0.00
2013-2-5,27,16,0,24,12,-2,90,84,71,29.26,29.04,13,2,15,0.00
2013-2-6,31,22,8,21,15,6,92,75,55,29.56,29.28,7,1,12,0.00
2013-2-7,31,27,24,27,24,19,96,88,75,29.54,29.24,9,3,14,0.00
2013-2-8,32,25,10,27,20,8,96,81,57,29.65,29.20,15,5,20,0.00
2013-2-9,30,14,0,17,9,-3,91,81,59,29.73,29.55,6,1,9,0.00
2013-2-10,37,22,6,36,18,4,94,87,75,29.54,28.92,8,2,12,0.31
2013-2-11,41,37,32,39,32,27,96,84,73,29.09,28.77,18,8,29,0.00
2013-2-12,32,29,25,27,23,19,82,77,72,29.29,29.09,13,6,21,0.00
2013-2-13,33,30,25,28,25,20,87,83,78,29.20,29.02,12,3,13,0.00
2013-2-14,40,34,28,35,30,24,95,88,80,29.12,28.90,12,4,24,0.04
2013-2-15,28,24,17,24,16,12,83,73,58,29.42,29.13,13,4,17,0.00
2013-2-16,23,17,11,18,13,8,93,85,64,29.39,29.30,4,1,7,0.00
2013-2-17,25,14,1,8,5,-2,87,69,45,29.49,29.39,8,2,13,0.00
2013-2-18,41,30,15,37,20,7,88,67,52,29.46,28.81,10,3,15,0.02
2013-2-19,43,30,18,40,26,11,94,85,74,29.17,28.62,23,8,31,0.11
2013-2-20,22,18,14,14,10,7,81,72,60,29.53,29.18,14,6,20,0.00
2013-2-21,21,18,15,19,12,8,91,76,64,29.69,29.53,9,3,15,0.00
2013-2-22,31,25,20,30,23,17,96,91,81,29.57,29.13,14,3,14,0.00
2013-2-23,33,29,26,31,26,22,96,86,66,29.18,29.12,12,5,17,0.00
2013-2-24,39,30,24,29,24,22,93,78,52,29.43,29.16,8,2,13,0.06
2013-2-25,38,32,26,27,24,21,84,74,58,29.51,29.41,6,1,8,0.01
2013-2-26,34,30,22,31,26,20,96,87,78,29.45,28.91,18,5,32,0.00
2013-2-27,34,33,32,33,32,31,97,97,96,28.91,28.82,13,5,17,0.28
2013-2-28,35,33,28,32,28,22,96,84,75,29.30,28.89,13,5,18,0.09
2013-3-1,31,26,22,22,19,14,81,74,63,29.44,29.30,11,4,16,0.00
2013-3-2,27,22,18,17,16,14,84,76,66,29.42,29.37,10,3,12,0.00
2013-3-3,31,21,10,17,14,8,91,74,53,29.37,29.28,8,2,12,0.00
2013-3-4,39,21,10,20,14,8,90,76,38,29.43,29.36,4,1,7,0.00
2013-3-5,31,23,13,26,19,11,93,86,72,29.44,29.23,13,4,22,0.00
2013-3-6,39,33,27,31,28,25,92,84,72,29.51,29.25,13,4,15,0.00
2013-3-7,39,31,21,30,23,16,93,73,48,29.70,29.50,10,2,13,0.00
2013-3-8,42,29,16,25,20,14,92,73,46,29.79,29.69,6,1,11,0.00
2013-3-9,44,34,22,33,27,20,94,77,54,29.69,29.32,7,2,14,0.01
2013-3-10,50,42,33,43,37,31,94,83,72,29.31,29.08,6,1,10,0.13
2013-3-11,50,45,36,48,42,33,97,91,81,29.08,28.74,14,3,20,0.42
2013-3-12,36,33,29,34,28,24,93,83,65,29.17,28.90,18,5,19,0.00
2013-3-13,34,28,22,25,18,10,88,68,39,29.47,29.15,17,6,25,0.00
2013-3-14,41,30,20,21,17,13,82,60,34,29.53,29.33,10,3,13,0.00
2013-3-15,42,35,30,31,26,18,84,72,46,29.33,29.16,11,4,20,0.00
2013-3-16,30,26,22,25,22,19,91,86,79,29.34,29.13,11,3,17,0.00
2013-3-17,27,21,16,22,12,6,89,68,47,29.61,29.34,10,3,15,0.00
2013-3-18,32,26,17,31,22,12,96,85,67,29.51,28.84,11,3,15,0.00
2013-3-19,33,25,22,31,19,15,94,78,64,29.17,28.84,22,8,27,0.00
2013-3-20,28,22,18,16,13,10,78,67,51,29.21,29.16,10,5,18,0.00
2013-3-21,32,26,16,22,18,11,85,74,60,29.21,29.12,13,5,17,0.00
2013-3-22,40,30,24,25,20,17,80,69,51,29.32,29.22,10,4,16,0.00
2013-3-23,39,32,25,26,23,22,89,72,56,29.42,29.33,5,2,9,0.00
2013-3-24,36,29,21,28,24,19,95,81,54,29.37,29.05,14,4,26,0.00
2013-3-25,40,35,29,29,27,25,84,73,55,29.25,28.99,17,5,21,0.00
2013-3-26,44,37,32,34,28,23,87,71,55,29.41,29.25,9,3,14,0.00
2013-3-27,50,39,30,27,25,23,80,61,40,29.49,29.39,12,4,19,0.00
2013-3-28,54,41,30,27,24,20,79,54,29,29.56,29.49,13,3,16,0.00
2013-3-29,54,40,24,26,22,19,85,53,26,29.58,29.48,7,1,13,0.00
2013-3-30,54,40,23,31,24,20,91,58,28,29.52,29.18,12,2,18,0.00
2013-3-31,56,45,34,41,36,29,88,71,46,29.17,28.91,14,4,22,0.03
2013-4-1,34,29,25,28,14,9,78,55,37,29.38,29.03,16,6,19,0.00
2013-4-2,40,30,20,18,13,8,86,54,29,29.53,29.37,13,4,20,0.00
2013-4-3,44,31,16,18,14,12,87,52,29,29.72,29.53,10,2,16,0.00
2013-4-4,57,42,28,30,22,17,69,48,27,29.61,29.21,15,5,22,0.00
2013-4-5,47,38,29,32,22,12,80,57,25,29.52,29.26,15,4,20,0.00
2013-4-6,51,39,29,29,23,19,81,55,35,29.53,28.99,14,4,20,0.00
2013-4-7,56,45,39,49,37,29,88,73,45,29.35,28.83,17,6,22,0.00
2013-4-8,46,38,28,42,35,27,96,91,71,29.35,28.99,9,2,13,0.87
2013-4-9,42,39,36,41,38,34,97,96,93,29.40,29.21,8,2,16,1.34
2013-4-10,38,37,36,37,35,31,96,92,80,29.38,29.24,22,6,22,0.69
2013-4-11,37,34,32,32,32,31,96,92,81,29.36,29.04,17,7,28,1.26
2013-4-12,43,36,32,38,34,31,96,92,76,29.05,28.87,11,4,18,0.52
2013-4-13,41,37,34,35,31,24,94,80,60,29.26,29.03,14,5,25,0.04
2013-4-14,44,37,28,35,31,26,93,77,59,29.41,29.23,6,2,12,0.00
2013-4-15,67,52,34,56,45,32,95,80,62,29.23,29.12,10,4,21,0.19
2013-4-16,59,50,42,51,38,30,96,66,36,29.58,29.19,14,4,17,0.66
2013-4-17,47,40,36,40,36,33,95,83,65,29.68,29.36,11,4,20,0.41
2013-4-18,63,52,42,60,50,40,98,93,86,29.36,28.76,10,4,16,1.41
2013-4-19,62,43,34,58,37,25,95,80,63,29.00,28.67,22,9,33,0.37
2013-4-20,38,32,25,27,18,16,75,58,42,29.74,29.00,14,5,21,0.00
2013-4-21,51,36,20,35,23,17,90,62,35,29.91,29.74,8,2,13,0.00
2013-4-22,65,47,31,38,30,23,83,54,24,29.75,29.47,7,2,15,0.00
2013-4-23,62,51,39,53,43,31,95,73,51,29.48,29.11,14,2,23,0.32
2013-4-24,48,39,33,37,30,20,95,72,34,29.38,29.16,9,3,15,0.36
2013-4-25,51,42,35,40,29,22,92,65,35,29.61,29.33,14,4,22,0.07
2013-4-26,62,48,30,38,32,26,92,59,35,29.71,29.57,11,3,19,0.00
2013-4-27,73,59,44,45,39,35,78,51,26,29.60,29.40,9,3,13,0.00
2013-4-28,68,56,46,52,45,36,91,69,48,29.40,29.17,7,2,13,0.00
2013-4-29,73,63,53,55,52,50,97,72,47,29.23,29.16,9,2,11,0.00
2013-4-30,75,64,57,59,56,53,94,75,58,29.32,29.20,11,4,19,0.16
2013-5-1,86,73,60,60,56,53,82,58,34,29.51,29.32,12,4,14,0.00
2013-5-2,83,70,56,56,54,49,87,58,37,29.55,29.40,9,2,11,0.00
2013-5-3,81,69,55,56,48,33,76,50,26,29.44,29.35,11,2,14,0.00
2013-5-4,76,65,52,49,44,34,80,49,24,29.43,29.37,10,2,18,0.00
2013-5-5,75,62,49,50,44,39,88,56,28,29.43,29.35,8,2,16,0.00
2013-5-6,77,61,45,50,42,33,88,56,22,29.40,29.30,10,2,13,0.00
2013-5-7,78,63,45,49,45,39,92,57,25,29.39,29.32,9,2,16,0.00
2013-5-8,83,65,46,48,44,38,91,54,23,29.35,29.25,7,1,12,0.00
2013-5-9,84,66,48,56,49,45,94,61,27,29.28,29.18,8,2,13,0.00
2013-5-10,58,45,40,50,42,39,94,90,72,29.23,29.16,13,5,25,0.68
2013-5-11,60,45,38,49,40,33,93,84,66,29.22,29.00,13,4,21,0.05
2013-5-12,46,39,33,35,29,24,84,68,52,29.40,29.13,13,5,24,0.00
2013-5-13,56,43,29,30,25,22,83,54,28,29.46,29.38,7,2,13,0.00
2013-5-14,69,55,45,50,38,29,86,53,39,29.37,29.01,10,2,11,0.00
2013-5-15,80,67,52,56,47,36,91,55,22,29.11,28.82,12,4,17,0.01
2013-5-16,81,64,47,47,43,35,90,53,20,29.22,29.10,14,2,19,0.00
2013-5-21,80,73,65,66,62,-100,96,73,56,29.09,29.01,11,-12,17,0.00
2013-5-22,69,65,58,67,63,57,98,94,83,29.05,28.93,11,1,15,1.11
2013-5-23,58,49,42,57,48,40,97,94,82,29.49,28.97,16,3,20,1.11
2013-5-24,59,46,34,44,37,32,94,73,41,29.68,29.49,8,3,14,0.00
2013-5-25,67,50,33,43,38,32,98,69,36,29.73,29.60,9,1,10,0.00
2013-5-26,70,53,34,43,39,34,98,66,33,29.67,29.55,8,1,11,0.00
2013-5-27,75,56,38,46,39,31,97,62,24,29.57,29.35,9,2,16,0.00
2013-5-28,75,67,54,69,64,52,98,90,79,29.25,29.08,7,2,12,1.03
2013-5-29,81,70,63,70,66,62,98,87,68,29.28,29.08,14,3,22,0.41
2013-5-30,88,77,66,75,68,64,98,76,53,29.32,29.23,11,3,20,0.82
2013-5-31,82,75,71,69,67,64,90,75,60,29.25,29.12,11,4,18,0.00
2013-6-1,83,73,68,67,65,62,91,76,51,29.14,28.98,14,4,23,0.00
2013-6-2,69,59,44,64,52,39,94,78,62,29.34,28.93,14,4,19,0.04
2013-6-3,71,53,35,43,39,35,98,64,31,29.40,29.30,11,2,13,0.00
2013-6-4,72,57,40,49,40,35,97,59,31,29.52,29.41,9,1,9,0.00
2013-6-5,71,60,53,51,43,38,82,56,35,29.53,29.37,9,2,15,0.00
2013-6-6,64,58,54,52,48,43,87,71,50,29.36,29.24,11,3,16,0.00
2013-6-7,68,57,47,53,50,46,95,79,59,29.26,29.21,9,2,15,0.00
2013-6-8,74,61,46,55,51,45,98,74,46,29.39,29.24,6,1,9,0.00
2013-6-9,82,67,50,60,55,49,98,69,44,29.43,29.28,7,1,11,0.00
2013-6-10,68,64,59,64,60,52,98,88,60,29.28,29.09,5,2,7,0.09
2013-6-11,85,72,62,67,64,62,98,76,49,29.20,29.11,8,2,16,0.01
2013-6-12,84,69,60,68,63,59,98,83,55,29.23,29.00,8,1,12,0.05
2013-6-13,80,68,59,63,59,55,96,73,43,29.27,28.99,13,3,15,0.13
2013-6-14,79,65,54,56,52,46,92,66,32,29.42,29.27,9,2,12,0.00
2013-6-15,80,66,49,62,55,47,96,71,40,29.38,29.20,9,2,13,0.00
2013-6-16,85,73,63,67,61,51,97,69,34,29.19,29.05,12,3,18,0.82
2013-6-17,81,66,56,66,59,54,93,79,49,29.29,29.16,9,2,15,0.52
2013-6-18,70,60,48,53,48,42,93,67,38,29.42,29.28,14,4,18,0.00
2013-6-19,78,60,42,51,46,41,98,65,32,29.52,29.41,6,1,12,0.00
2013-6-20,85,66,51,57,51,47,95,65,29,29.51,29.45,6,1,8,0.00
2013-6-21,87,74,58,66,60,53,87,64,43,29.50,29.32,11,2,22,0.00
2013-6-22,90,78,72,71,67,61,82,70,51,29.37,29.30,7,3,11,0.00
2013-6-24,88,83,75,72,68,62,81,61,49,29.33,29.20,10,5,18,0.00
2013-6-25,81,74,69,69,67,65,92,78,61,29.23,29.12,10,3,15,0.03
2013-6-26,91,77,63,71,67,62,97,75,46,29.17,29.05,5,1,10,0.00
2013-6-27,89,73,67,73,69,65,97,87,55,29.07,28.97,6,1,19,1.43
2013-6-28,78,68,62,68,65,61,97,90,64,28.96,28.86,5,1,15,0.51
2013-6-29,76,65,59,63,61,57,96,86,60,29.09,28.89,4,1,8,0.00
2013-6-30,79,66,56,63,56,46,97,73,43,29.32,29.09,9,2,14,0.00
2013-7-1,75,64,55,58,50,41,80,60,44,29.45,29.31,15,3,19,0.00
2013-7-2,75,64,56,60,52,41,89,67,41,29.43,29.38,12,3,18,0.04
2013-7-3,83,68,54,69,61,51,94,81,56,29.42,29.35,6,1,10,0.00
2013-7-4,82,71,61,66,62,60,97,75,49,29.43,29.37,9,2,14,0.00
2013-7-5,88,76,64,67,64,61,95,70,48,29.42,29.34,7,2,11,0.00
2013-7-6,91,78,66,71,67,64,95,72,45,29.41,29.28,6,1,9,0.00
2013-7-7,83,76,71,74,70,66,92,81,62,29.32,29.25,6,2,10,0.08
2013-7-8,81,75,71,74,71,69,95,87,74,29.31,29.26,9,2,16,0.16
2013-7-9,88,75,67,75,70,66,96,85,59,29.30,29.15,6,1,9,0.07
2013-7-10,87,76,60,73,66,56,94,73,45,29.28,29.07,12,4,19,0.00
2013-7-11,80,66,55,61,58,53,95,76,50,29.41,29.28,8,1,12,0.00
2013-7-12,83,66,50,64,57,48,95,76,45,29.51,29.41,7,1,8,0.00
2013-7-13,90,74,56,65,61,55,95,68,35,29.53,29.46,6,1,11,0.00
2013-7-14,94,78,61,72,67,59,94,71,42,29.58,29.53,6,1,9,0.00
2013-7-15,97,83,71,75,72,69,91,70,45,29.61,29.53,5,1,7,0.00
2013-7-16,98,86,75,76,74,72,90,69,46,29.60,29.52,7,2,11,0.00
2013-7-17,97,85,75,78,74,71,86,70,45,29.57,29.43,9,2,13,0.03
2013-7-18,97,86,73,76,72,70,90,66,44,29.46,29.21,11,3,18,0.00
2013-7-19,94,84,79,75,73,71,84,71,47,29.22,29.02,16,5,24,0.00
2013-7-20,80,72,63,68,63,59,87,74,58,29.28,29.17,7,2,12,0.01
2013-7-21,84,69,53,60,54,46,91,64,28,29.35,29.26,8,1,9,0.00
2013-7-22,86,74,62,70,64,59,92,73,51,29.29,29.05,11,2,14,0.27
2013-7-23,78,71,59,69,62,47,88,75,50,29.23,28.97,11,4,19,0.00
2013-7-24,74,61,48,52,49,45,90,67,45,29.38,29.24,6,2,11,0.00
2013-7-25,80,65,48,55,51,46,94,65,37,29.43,29.35,8,1,13,0.00
2013-7-26,80,68,61,65,59,52,92,73,51,29.38,29.20,8,2,15,0.12
2013-7-27,78,67,56,64,60,50,92,79,54,29.20,29.05,10,2,15,0.00
2013-7-28,69,59,51,58,52,48,90,78,57,29.26,29.12,10,3,12,0.05
2013-7-29,75,63,56,58,55,53,92,78,55,29.49,29.24,7,2,10,0.11
2013-7-30,83,65,48,61,54,46,95,73,38,29.55,29.43,5,1,11,0.00
2013-7-31,69,65,62,65,61,58,93,89,84,29.43,29.21,4,1,7,0.57
2013-8-1,82,69,60,63,58,53,93,71,38,29.22,29.18,9,2,16,0.00
2013-8-2,78,66,55,65,59,52,92,78,56,29.23,29.11,19,3,20,0.19
2013-8-3,80,65,53,60,55,51,93,73,43,29.39,29.22,10,2,15,0.00
2013-8-4,76,63,51,56,53,49,91,72,40,29.50,29.39,7,2,9,0.00
2013-8-5,74,63,53,57,54,50,89,74,50,29.42,29.26,6,1,9,0.00
2013-8-6,79,70,63,68,63,56,84,77,68,29.26,29.17,9,3,13,0.00
2013-8-7,85,71,63,69,65,60,91,82,59,29.19,29.08,11,3,21,1.12
2013-8-8,79,72,59,58,55,52,86,57,40,29.36,29.30,7,2,10,0.00
2013-8-9,82,68,51,61,56,49,92,68,41,29.34,29.23,9,2,16,0.00
2013-8-10,78,65,50,57,52,47,91,67,41,29.46,29.34,7,1,9,0.00
2013-8-11,79,67,54,60,56,51,92,70,41,29.44,29.35,6,1,8,0.00
2013-8-12,82,72,63,67,62,59,87,72,54,29.37,29.14,7,2,13,0.00
2013-8-13,70,61,52,59,48,43,84,65,41,29.39,29.20,11,4,15,0.00
2013-8-14,75,60,46,52,48,44,90,67,38,29.48,29.40,6,2,11,0.00
2013-8-15,79,61,44,57,49,42,92,70,35,29.47,29.36,9,2,14,0.00
2013-8-16,84,66,48,55,50,40,92,63,22,29.51,29.41,4,1,8,0.00
2013-8-17,87,68,52,59,54,50,92,65,29,29.58,29.50,3,0,8,0.00
2013-8-18,87,69,52,60,55,49,90,64,35,29.55,29.41,5,1,8,0.00
2013-8-19,86,70,53,60,56,50,89,65,39,29.43,29.32,7,2,13,0.00
2013-8-20,89,75,61,67,61,56,84,65,41,29.42,29.35,9,2,14,0.00
2013-8-21,90,78,66,68,64,62,86,65,43,29.41,29.26,11,3,16,0.00
2013-8-22,84,75,62,69,65,59,88,73,57,29.40,29.25,5,2,10,0.01
2013-8-23,81,66,50,61,55,47,90,72,43,29.52,29.40,7,2,14,0.01
2013-8-24,86,69,51,60,55,48,90,66,37,29.63,29.52,5,1,14,0.00
2013-8-25,90,76,62,69,63,57,84,65,48,29.59,29.40,13,4,17,0.00
2013-8-26,88,78,72,73,68,65,82,72,58,29.42,29.27,9,3,12,0.02
2013-8-27,77,74,70,71,69,67,89,85,78,29.29,29.15,8,1,23,1.21
2013-8-28,86,75,67,72,69,64,90,81,63,29.35,29.13,9,2,11,0.00
2013-8-29,90,76,63,71,66,60,90,74,49,29.41,29.31,4,0,7,0.01
2013-8-30,89,76,66,74,68,63,89,78,57,29.31,29.04,14,3,20,0.58
2013-8-31,78,71,62,66,64,59,89,80,62,29.19,29.11,5,1,9,0.00
2013-9-1,79,69,59,69,63,56,90,82,65,29.19,29.04,5,1,9,0.13
2013-9-2,71,64,58,67,57,52,89,77,59,29.25,29.06,11,3,15,0.01
2013-9-3,78,66,52,55,53,49,88,66,40,29.32,29.23,8,2,13,0.00
2013-9-4,83,67,56,66,58,52,88,76,54,29.43,29.31,7,2,12,0.00
2013-9-5,72,58,45,52,47,42,89,70,38,29.59,29.44,7,2,12,0.00
2013-9-6,78,61,45,57,50,42,90,70,44,29.59,29.35,8,2,11,0.00
2013-9-7,78,70,64,70,63,55,87,79,71,29.35,29.19,9,2,11,0.02
2013-9-8,72,65,52,67,56,48,88,73,51,29.45,29.26,10,2,18,0.00
2013-9-9,82,66,50,70,60,47,88,81,66,29.40,29.15,8,2,11,0.00
2013-9-10,96,83,72,72,69,65,86,65,38,29.27,29.14,13,4,19,0.00
2013-9-11,87,77,67,71,66,63,87,69,49,29.32,29.25,8,2,14,0.00
2013-9-12,78,67,57,64,56,43,88,69,42,29.32,29.20,17,4,24,0.00
2013-9-13,63,53,42,45,42,33,88,69,33,29.46,29.32,13,2,15,0.00
2013-9-14,71,54,36,50,41,33,90,66,32,29.50,29.37,11,2,13,0.00
2013-9-15,61,57,52,55,50,47,88,80,66,29.44,29.34,6,1,9,0.13
2013-9-16,62,53,43,52,45,39,88,75,49,29.71,29.44,9,3,14,0.00
2013-9-17,72,51,32,50,42,30,90,73,43,29.73,29.53,5,1,10,0.00
2013-9-18,81,61,41,57,49,38,89,68,39,29.53,29.31,12,2,13,0.00
2013-9-19,81,69,62,69,62,55,86,79,67,29.33,29.17,6,2,14,0.27
2013-9-20,77,70,65,70,65,61,89,84,74,29.18,29.02,13,3,14,0.23
2013-9-21,68,60,51,61,52,45,87,77,52,29.22,29.00,10,3,18,0.00
2013-9-22,63,51,42,45,42,38,88,72,43,29.42,29.22,9,2,14,0.00
2013-9-23,66,53,43,47,43,40,89,72,45,29.52,29.41,4,0,9,0.00
2013-9-24,68,52,37,51,44,35,90,76,47,29.48,29.33,4,1,10,0.00
2013-9-25,72,56,40,55,48,37,90,75,49,29.36,29.30,7,1,9,0.01
2013-9-26,78,57,39,58,47,37,90,74,37,29.46,29.33,4,1,9,0.01
2013-9-27,81,60,41,57,50,39,90,74,39,29.55,29.46,6,1,8,0.01
2013-9-28,82,64,49,60,54,46,89,70,40,29.51,29.28,7,2,14,0.00
2013-9-29,73,63,51,58,54,48,88,72,43,29.32,29.21,8,2,12,0.24
2013-9-30,71,58,49,56,51,46,90,79,50,29.34,29.23,6,1,8,0.00
2013-10-1,78,64,50,64,57,46,88,79,59,29.26,29.17,24,3,29,0.01
2013-10-2,78,64,48,60,48,38,89,65,23,29.41,29.21,6,1,7,0.00
2013-10-3,80,64,45,67,56,41,88,76,60,29.39,29.20,9,1,15,0.00
2013-10-4,74,66,60,68,62,56,88,86,78,29.39,29.20,8,1,12,0.74
2013-10-5,70,64,60,66,60,56,88,88,85,29.37,29.14,6,1,11,0.35
2013-10-6,72,64,53,66,60,50,89,88,81,29.14,28.98,5,2,11,0.67
2013-10-7,62,53,48,51,47,44,89,80,55,29.39,28.97,11,3,15,0.05
2013-10-8,72,54,37,50,44,34,90,71,41,29.57,29.39,6,1,11,0.00
2013-10-9,75,56,42,52,46,39,89,70,38,29.62,29.51,8,1,9,0.00
2013-10-10,75,56,40,55,47,37,90,74,40,29.54,29.43,6,1,7,0.01
2013-10-11,73,55,38,54,46,35,90,76,48,29.48,29.39,6,1,10,0.01
2013-10-12,82,61,43,59,50,39,89,70,37,29.41,29.30,6,1,15,0.00
2013-10-13,67,57,43,59,47,40,87,70,45,29.67,29.38,9,2,11,0.00
2013-10-14,61,48,37,45,40,34,89,76,52,29.74,29.59,10,1,13,0.00
2013-10-15,66,51,35,56,46,32,89,83,69,29.58,29.09,9,1,12,0.39
2013-10-16,60,54,49,56,50,45,88,84,80,29.18,29.07,9,4,21,0.01
2013-10-17,54,49,43,48,45,39,88,86,80,29.19,29.03,4,1,10,0.59
2013-10-18,63,49,40,48,42,37,89,77,50,29.18,29.09,13,3,19,0.01
2013-10-19,57,47,39,43,39,32,86,76,42,29.16,29.01,11,3,14,0.00
2013-10-20,56,47,40,47,39,36,88,76,47,29.18,29.05,12,2,16,0.08
2013-10-21,54,49,40,49,42,30,86,75,60,29.13,29.04,15,5,18,0.02
2013-10-22,50,40,33,38,31,26,82,70,52,29.18,29.13,15,3,18,0.00
2013-10-23,49,39,32,35,30,26,88,74,42,29.21,29.14,10,2,15,0.00
2013-10-24,48,38,31,36,31,28,88,78,51,29.45,29.20,9,2,12,0.01
2013-10-25,48,39,29,36,29,26,88,70,44,29.59,29.27,10,3,21,0.00
2013-10-26,49,43,34,42,36,30,87,77,57,29.28,29.01,11,4,24,0.26
2013-10-27,54,43,31,35,33,28,88,69,48,29.32,29.23,10,2,18,0.00
2013-10-28,43,40,36,36,33,29,86,75,63,29.73,29.30,14,3,18,0.00
2013-10-29,43,36,30,36,30,24,88,79,66,29.77,29.54,5,1,9,0.04
2013-10-30,64,44,29,48,38,26,89,79,57,29.54,29.22,8,1,8,0.01
2013-10-31,61,58,53,58,54,48,89,87,80,29.20,28.37,9,3,16,0.85
2013-11-1,60,50,46,57,46,43,88,86,82,28.95,28.35,17,6,28,0.12
2013-11-2,46,42,35,43,38,30,89,85,68,29.43,28.95,9,2,11,0.10
2013-11-3,44,37,26,36,31,23,89,79,66,29.74,29.44,5,1,10,0.01
2013-11-4,51,41,30,34,29,23,87,66,35,29.75,29.54,8,2,16,0.00
2013-11-5,60,52,44,48,44,35,83,75,64,29.60,29.40,9,3,13,0.00
2013-11-6,57,51,40,53,46,35,88,84,70,29.39,29.00,15,5,25,0.48
2013-11-7,43,38,36,36,30,25,88,72,52,29.41,29.29,8,3,16,0.01
2013-11-8,46,37,26,31,27,23,88,70,47,29.54,29.39,8,2,12,0.00
2013-11-9,51,45,37,42,36,29,78,69,58,29.43,29.03,21,6,25,0.00
2013-11-10,48,41,32,35,31,27,83,67,51,29.53,29.17,25,5,25,0.00
2013-11-11,41,35,26,36,28,17,87,78,63,29.64,29.32,13,4,19,0.12
2013-11-12,36,26,17,23,17,12,88,69,44,29.82,29.65,11,3,18,0.00
2013-11-13,45,31,21,25,19,17,86,65,34,29.80,29.35,20,7,29,0.00
2013-11-14,48,39,32,32,27,25,77,64,49,29.36,29.20,12,6,26,0.00
2013-11-15,49,43,39,33,30,28,69,61,52,29.32,29.23,9,4,14,0.00
2013-11-16,56,47,35,51,41,29,87,79,69,29.35,29.02,11,4,18,0.14
2013-11-17,64,57,45,59,53,41,88,86,84,29.00,28.41,17,7,37,0.82
2013-11-18,46,39,35,42,30,23,87,70,60,29.41,28.66,19,8,29,0.00
2013-11-19,44,34,29,26,23,21,80,64,44,29.70,29.42,9,2,13,0.00
2013-11-20,46,35,25,32,27,22,88,74,48,29.72,29.52,11,2,11,0.00
2013-11-21,49,43,37,42,38,30,88,81,70,29.56,29.46,6,1,11,0.08
2013-11-22,45,37,25,41,32,22,88,82,65,29.66,29.43,12,3,19,0.02
2013-11-23,28,22,16,23,14,5,87,72,45,29.80,29.54,17,5,22,0.00
2013-11-24,24,19,13,15,10,8,85,71,52,29.86,29.61,9,4,16,0.00
2013-11-25,31,26,21,27,17,5,88,70,47,29.61,29.27,17,7,25,0.00
2013-11-26,33,31,26,30,28,21,88,87,79,29.33,29.22,9,4,14,0.00
2013-11-27,27,21,16,19,12,8,86,70,50,29.48,29.28,18,4,20,0.00
2013-11-28,24,20,13,22,17,10,89,86,77,29.72,29.48,6,1,7,0.00
2013-11-29,25,20,14,22,17,11,89,89,86,29.94,29.72,5,1,6,0.00
2013-11-30,44,34,24,32,27,21,88,75,61,29.81,29.34,8,3,12,0.07
2013-12-1,39,35,32,33,31,27,88,84,74,29.36,29.30,5,1,9,0.00
2013-12-2,39,32,24,28,26,21,88,79,60,29.32,29.20,3,0,5,0.00
2013-12-3,33,29,22,30,26,19,89,88,88,29.23,29.17,6,2,12,0.00
2013-12-4,54,38,32,51,35,30,89,89,88,29.19,28.84,9,2,14,0.17
2013-12-5,56,39,27,52,31,17,87,72,54,29.41,28.84,16,7,24,0.00
2013-12-6,26,22,18,18,13,9,73,68,61,29.68,29.42,9,4,13,0.00
2013-12-7,23,18,8,12,8,4,85,66,53,29.89,29.68,13,4,16,0.00
2013-12-8,25,16,7,22,11,4,88,80,67,29.87,29.29,8,2,11,0.00
2013-12-9,29,24,14,26,19,5,89,82,63,29.35,29.12,20,6,28,0.00
2013-12-10,19,14,6,13,8,2,87,77,59,29.42,29.16,13,5,23,0.00
2013-12-11,20,13,5,11,6,1,87,73,54,29.69,29.43,9,4,16,0.00
2013-12-12,20,13,6,16,8,0,87,81,77,29.70,29.39,13,5,17,0.00
2013-12-13,23,20,11,18,15,7,86,80,71,29.63,29.38,11,3,15,0.00
2013-12-14,21,18,11,18,14,6,89,87,80,29.63,29.15,13,4,19,0.00
2013-12-15,24,18,11,19,13,5,89,81,68,29.27,29.06,15,4,21,0.00
2013-12-16,19,11,0,11,4,-3,88,76,56,29.48,29.27,6,1,8,0.00
2013-12-17,30,22,14,26,18,11,89,87,80,29.32,29.09,7,2,10,0.00
2013-12-18,28,26,23,23,19,13,88,77,63,29.36,29.11,18,4,18,0.00
2013-12-19,36,28,23,30,23,15,88,80,66,29.31,29.08,6,2,10,0.02
2013-12-20,32,30,27,29,27,24,89,89,88,29.23,29.07,7,4,14,0.00
2013-12-21,30,29,27,28,26,24,89,89,88,29.22,29.06,11,2,12,0.00
2013-12-22,31,28,22,28,25,19,89,88,86,29.30,28.95,13,4,18,0.00
2013-12-23,27,21,14,19,17,9,89,83,70,29.59,29.30,6,1,6,0.00
2013-12-24,20,10,2,8,5,0,89,78,55,29.79,29.59,5,1,11,0.00
2013-12-25,24,18,9,21,15,6,89,87,84,29.75,29.35,12,4,17,0.00
2013-12-26,26,24,20,22,19,16,89,84,68,29.52,29.28,11,4,16,0.00
2013-12-27,36,28,24,32,24,20,89,86,80,29.57,29.25,15,3,20,0.00
2013-12-28,42,37,31,34,32,28,89,83,74,29.35,29.12,10,3,17,0.40
2013-12-29,39,30,16,33,24,7,87,79,69,29.33,29.01,16,4,16,0.04
2013-12-30,20,15,10,8,5,2,78,66,51,29.55,29.34,6,2,11,0.00
2013-12-31,17,13,9,10,6,3,87,75,62,29.62,29.33,22,5,22,0.00
2014-1-1,13,8,-1,7,2,-4,88,74,58,29.72,29.61,11,2,12,0.00
2014-1-2,11,8,-2,6,1,-7,84,75,62,29.62,29.49,14,5,21,0.00